Time;durP1;ratioP1;P1;durP2;ratioP2;P2;SDS_P1;SDS_P2;PMS_P1;PMS_P2;Temp;Humidity;BMP_temperature;BMP_pressure;BME280_temperature;BME280_humidity;BME280_pressure;Samples;Min_cycle;Max_cycle;Signal;HPM_P1;HPM_P2
2022/01/02 00:00:14;;;;;;;52.35;4.45;;;;;;;;;;5031954;28;20182;-61
2022/01/02 00:02:41;;;;;;;65.47;4.45;;;;;;;;;;5037247;28;20116;-61
2022/01/02 00:05:19;;;;;;;33.70;4.05;;;;;;;;;;5036390;28;20025;-61
2022/01/02 00:08:01;;;;;;;37.20;3.85;;;;;;;;;;5036554;28;20104;-61
2022/01/02 00:10:31;;;;;;;45.35;3.28;;;;;;;;;;5039944;28;20085;-61
2022/01/02 00:12:58;;;;;;;31.73;4.18;;;;;;;;;;5031002;28;20627;-61
2022/01/02 00:15:24;;;;;;;40.63;3.08;;;;;;;;;;5034113;28;20069;-61
2022/01/02 00:17:51;;;;;;;50.80;3.47;;;;;;;;;;5039412;28;20037;-60
2022/01/02 00:20:20;;;;;;;40.42;4.35;;;;;;;;;;5038740;28;20029;-61
2022/01/02 00:22:50;;;;;;;44.75;4.35;;;;;;;;;;5037531;28;20360;-61
2022/01/02 00:25:27;;;;;;;53.25;4.28;;;;;;;;;;5033802;28;20026;-61
2022/01/02 00:27:54;;;;;;;46.50;4.80;;;;;;;;;;5035447;28;20037;-61
2022/01/02 00:30:20;;;;;;;39.42;3.22;;;;;;;;;;5034988;28;20443;-61
2022/01/02 00:32:45;;;;;;;55.05;4.50;;;;;;;;;;5034376;28;20037;-60
2022/01/02 00:35:11;;;;;;;64.20;4.10;;;;;;;;;;5035300;28;20025;-60
2022/01/02 00:37:37;;;;;;;40.55;4.82;;;;;;;;;;5034475;28;20036;-61
2022/01/02 00:40:03;;;;;;;44.42;3.60;;;;;;;;;;5038422;28;20064;-60
2022/01/02 00:42:34;;;;;;;51.75;3.10;;;;;;;;;;5028701;28;20065;-61
2022/01/02 00:45:10;;;;;;;41.10;3.45;;;;;;;;;;5037645;28;20269;-61
2022/01/02 00:47:35;;;;;;;30.52;3.38;;;;;;;;;;5037659;28;20028;-61
2022/01/02 00:50:09;;;;;;;32.75;3.88;;;;;;;;;;5041481;28;20484;-61
2022/01/02 00:52:40;;;;;;;52.00;3.20;;;;;;;;;;5036714;28;20416;-61
2022/01/02 00:55:15;;;;;;;51.45;3.92;;;;;;;;;;5032658;28;20029;-61
2022/01/02 00:57:47;;;;;;;64.05;7.85;;;;;;;;;;5033194;28;20436;-61
2022/01/02 01:00:16;;;;;;;63.25;4.85;;;;;;;;;;5039490;28;20508;-61
2022/01/02 01:02:48;;;;;;;50.97;5.03;;;;;;;;;;5033214;28;20025;-61
2022/01/02 01:05:20;;;;;;;42.55;4.10;;;;;;;;;;5033514;28;20021;-61
2022/01/02 01:07:57;;;;;;;40.22;4.10;;;;;;;;;;5037650;28;20028;-61
2022/01/02 01:10:25;;;;;;;48.30;4.30;;;;;;;;;;5034877;28;20075;-61
2022/01/02 01:12:53;;;;;;;37.58;3.30;;;;;;;;;;5032794;28;20400;-61
2022/01/02 01:15:21;;;;;;;45.40;4.25;;;;;;;;;;5031606;28;20455;-61
2022/01/02 01:17:47;;;;;;;43.70;4.00;;;;;;;;;;5035653;28;20345;-61
2022/01/02 01:20:14;;;;;;;51.35;4.47;;;;;;;;;;5037629;28;20480;-61
2022/01/02 01:22:48;;;;;;;40.17;3.53;;;;;;;;;;5037048;28;20112;-62
2022/01/02 01:25:17;;;;;;;36.85;3.10;;;;;;;;;;5033395;28;20017;-62
2022/01/02 01:27:44;;;;;;;43.13;3.65;;;;;;;;;;5029461;28;20111;-62
2022/01/02 01:30:12;;;;;;;46.25;3.83;;;;;;;;;;5033447;28;20036;-61
2022/01/02 01:32:38;;;;;;;66.95;6.68;;;;;;;;;;5031335;28;20025;-61
2022/01/02 01:35:05;;;;;;;37.25;3.67;;;;;;;;;;5039720;28;20041;-61
2022/01/02 01:37:31;;;;;;;69.65;5.28;;;;;;;;;;5029223;28;20033;-61
2022/01/02 01:39:57;;;;;;;34.38;4.63;;;;;;;;;;5037983;28;20033;-61
2022/01/02 01:42:35;;;;;;;38.80;4.28;;;;;;;;;;5031252;28;20481;-61
2022/01/02 01:47:29;;;;;;;43.67;3.67;;;;;;;;;;5040580;28;20029;-61
2022/01/02 01:49:54;;;;;;;55.38;4.63;;;;;;;;;;5039720;28;20033;-61
2022/01/02 01:52:19;;;;;;;44.40;4.82;;;;;;;;;;5033540;28;20033;-61
2022/01/02 01:54:45;;;;;;;39.55;3.40;;;;;;;;;;5032208;28;20063;-62
2022/01/02 01:57:11;;;;;;;45.72;5.30;;;;;;;;;;5036091;28;20057;-62
2022/01/02 01:59:36;;;;;;;42.72;4.20;;;;;;;;;;5040776;28;20031;-62
2022/01/02 02:02:02;;;;;;;46.35;5.20;;;;;;;;;;5038859;28;20029;-61
2022/01/02 02:04:28;;;;;;;35.22;3.90;;;;;;;;;;5036032;28;20029;-62
2022/01/02 02:06:55;;;;;;;40.85;4.82;;;;;;;;;;5036506;28;20029;-62
2022/01/02 02:09:24;;;;;;;26.83;3.58;;;;;;;;;;5039806;28;20028;-62
2022/01/02 02:11:50;;;;;;;39.85;3.40;;;;;;;;;;5036746;28;20029;-62
2022/01/02 02:14:16;;;;;;;38.90;4.25;;;;;;;;;;5036134;28;20045;-61
2022/01/02 02:16:42;;;;;;;50.28;4.80;;;;;;;;;;5045557;28;20035;-62
2022/01/02 02:19:07;;;;;;;45.53;2.53;;;;;;;;;;5044498;28;20064;-62
2022/01/02 02:21:37;;;;;;;31.42;3.65;;;;;;;;;;5041533;28;20132;-62
2022/01/02 02:24:07;;;;;;;52.47;3.72;;;;;;;;;;5043131;28;20459;-62
2022/01/02 02:26:34;;;;;;;36.42;3.05;;;;;;;;;;5039440;28;20022;-62
2022/01/02 02:29:02;;;;;;;55.28;4.85;;;;;;;;;;5043556;28;20039;-62
2022/01/02 02:31:27;;;;;;;51.78;4.30;;;;;;;;;;5044348;28;20101;-62
2022/01/02 02:33:53;;;;;;;32.67;3.13;;;;;;;;;;5040212;28;20044;-62
2022/01/02 02:36:18;;;;;;;49.03;2.65;;;;;;;;;;5037971;28;20468;-62
2022/01/02 02:38:44;;;;;;;23.50;2.85;;;;;;;;;;5037968;28;20088;-62
2022/01/02 02:41:09;;;;;;;22.95;2.42;;;;;;;;;;5039604;28;20134;-62
2022/01/02 02:43:54;;;;;;;32.28;2.67;;;;;;;;;;5036805;28;20032;-62
2022/01/02 02:49:20;;;;;;;32.28;4.45;;;;;;;;;;5008748;28;20100;-62
2022/01/02 02:52:08;;;;;;;32.15;4.70;;;;;;;;;;5037563;28;20504;-62
2022/01/02 02:54:35;;;;;;;32.67;2.40;;;;;;;;;;5040965;28;20034;-62
2022/01/02 02:57:01;;;;;;;38.55;4.05;;;;;;;;;;5041297;28;20396;-62
2022/01/02 02:59:29;;;;;;;25.38;2.28;;;;;;;;;;5036572;28;20025;-62
2022/01/02 03:01:55;;;;;;;31.75;2.08;;;;;;;;;;5044163;28;20013;-62
2022/01/02 03:04:21;;;;;;;17.75;2.22;;;;;;;;;;5040833;28;20367;-62
2022/01/02 03:06:47;;;;;;;24.92;2.60;;;;;;;;;;5046248;28;20052;-62
2022/01/02 03:09:13;;;;;;;26.48;2.17;;;;;;;;;;5045287;28;20064;-62
2022/01/02 03:11:41;;;;;;;28.88;2.35;;;;;;;;;;5037534;28;20029;-62
2022/01/02 03:14:09;;;;;;;23.75;2.30;;;;;;;;;;5038838;28;20037;-62
2022/01/02 03:16:35;;;;;;;36.58;3.47;;;;;;;;;;5037808;28;20040;-62
2022/01/02 03:19:00;;;;;;;21.98;2.28;;;;;;;;;;5043402;28;20127;-62
2022/01/02 03:21:26;;;;;;;22.88;1.65;;;;;;;;;;5036261;28;20094;-62
2022/01/02 03:23:52;;;;;;;28.35;1.92;;;;;;;;;;5043510;28;20029;-61
2022/01/02 03:26:18;;;;;;;17.40;2.08;;;;;;;;;;5041752;28;20025;-62
2022/01/02 03:28:45;;;;;;;21.27;2.30;;;;;;;;;;5043109;28;20400;-62
2022/01/02 03:31:11;;;;;;;23.80;1.63;;;;;;;;;;5035931;28;20084;-62
2022/01/02 03:33:37;;;;;;;33.63;2.72;;;;;;;;;;5039278;28;20044;-62
2022/01/02 03:36:04;;;;;;;22.00;1.80;;;;;;;;;;5042509;28;20033;-62
2022/01/02 03:38:29;;;;;;;29.52;1.63;;;;;;;;;;5036991;28;20171;-63
2022/01/02 03:40:55;;;;;;;18.45;1.52;;;;;;;;;;5034994;28;20133;-61
2022/01/02 03:43:20;;;;;;;23.25;2.42;;;;;;;;;;5044296;28;20110;-62
2022/01/02 03:45:46;;;;;;;13.35;1.58;;;;;;;;;;5032953;28;20175;-63
2022/01/02 03:48:11;;;;;;;20.98;2.53;;;;;;;;;;5037449;28;20580;-62
2022/01/02 03:50:37;;;;;;;28.88;2.45;;;;;;;;;;5045221;28;20032;-62
2022/01/02 03:53:03;;;;;;;33.55;2.28;;;;;;;;;;5043282;28;20039;-62
2022/01/02 03:55:29;;;;;;;27.20;2.67;;;;;;;;;;5039914;28;20025;-62
2022/01/02 03:57:54;;;;;;;17.42;1.55;;;;;;;;;;5041395;28;20526;-62
2022/01/02 04:00:20;;;;;;;24.00;1.70;;;;;;;;;;5035518;28;20039;-62
2022/01/02 04:02:46;;;;;;;21.50;1.52;;;;;;;;;;5037508;28;20018;-62
2022/01/02 04:05:13;;;;;;;28.55;3.83;;;;;;;;;;5039714;28;20032;-61
2022/01/02 04:07:39;;;;;;;37.05;2.35;;;;;;;;;;5033989;28;20118;-61
2022/01/02 04:10:11;;;;;;;25.80;2.97;;;;;;;;;;5039461;28;20025;-62
2022/01/02 04:12:36;;;;;;;34.22;3.30;;;;;;;;;;5036864;28;20057;-62
2022/01/02 04:15:06;;;;;;;26.63;2.50;;;;;;;;;;5035048;28;20134;-62
2022/01/02 04:17:34;;;;;;;16.65;2.65;;;;;;;;;;5042397;28;20422;-62
2022/01/02 04:20:01;;;;;;;37.03;3.10;;;;;;;;;;5039376;28;20501;-62
2022/01/02 04:22:26;;;;;;;30.63;2.75;;;;;;;;;;5035080;28;20407;-62
2022/01/02 04:24:52;;;;;;;36.22;2.63;;;;;;;;;;5037729;28;20021;-62
2022/01/02 04:27:19;;;;;;;28.80;2.03;;;;;;;;;;5039568;28;20281;-61
2022/01/02 04:29:45;;;;;;;32.95;3.13;;;;;;;;;;5042950;28;20267;-62
2022/01/02 04:32:11;;;;;;;29.83;2.00;;;;;;;;;;5035861;28;20033;-61
2022/01/02 04:34:36;;;;;;;28.25;2.47;;;;;;;;;;5036827;28;20028;-62
2022/01/02 04:37:04;;;;;;;22.38;1.50;;;;;;;;;;5034885;28;20036;-62
2022/01/02 04:39:29;;;;;;;32.78;2.33;;;;;;;;;;5036705;28;20025;-62
2022/01/02 04:41:55;;;;;;;53.72;3.42;;;;;;;;;;5039585;28;20082;-62
2022/01/02 04:44:20;;;;;;;18.60;1.98;;;;;;;;;;5036302;28;20023;-62
2022/01/02 04:46:46;;;;;;;31.15;2.17;;;;;;;;;;5037415;28;20038;-61
2022/01/02 04:49:11;;;;;;;30.65;2.05;;;;;;;;;;5044784;28;20492;-62
2022/01/02 04:51:37;;;;;;;26.55;2.35;;;;;;;;;;5035948;28;20033;-62
2022/01/02 04:54:03;;;;;;;27.23;2.10;;;;;;;;;;5034992;28;20116;-62
2022/01/02 04:56:28;;;;;;;16.35;2.08;;;;;;;;;;5031348;28;20087;-63
2022/01/02 04:58:54;;;;;;;33.28;2.38;;;;;;;;;;5038586;28;20452;-62
2022/01/02 05:01:19;;;;;;;25.00;1.65;;;;;;;;;;5036628;28;20059;-62
2022/01/02 05:03:45;;;;;;;20.75;2.65;;;;;;;;;;5039666;28;20088;-61
2022/01/02 05:06:11;;;;;;;31.90;2.75;;;;;;;;;;5032959;28;20034;-61
2022/01/02 05:08:37;;;;;;;17.17;1.83;;;;;;;;;;5043760;28;20025;-62
2022/01/02 05:11:03;;;;;;;35.58;2.85;;;;;;;;;;5033394;28;20044;-62
2022/01/02 05:13:29;;;;;;;27.55;2.88;;;;;;;;;;5030028;28;20035;-62
2022/01/02 05:15:55;;;;;;;22.23;1.95;;;;;;;;;;5043633;28;20037;-62
2022/01/02 05:18:20;;;;;;;24.58;1.90;;;;;;;;;;5036076;28;20041;-63
2022/01/02 05:20:47;;;;;;;27.02;2.50;;;;;;;;;;5035677;28;20534;-62
2022/01/02 05:23:14;;;;;;;27.90;1.73;;;;;;;;;;5038465;28;20033;-62
2022/01/02 05:25:39;;;;;;;18.70;2.03;;;;;;;;;;5038081;28;20033;-62
2022/01/02 05:28:05;;;;;;;27.35;2.22;;;;;;;;;;5041120;28;20095;-62
2022/01/02 05:30:30;;;;;;;38.30;2.70;;;;;;;;;;5041908;28;20051;-62
2022/01/02 05:32:56;;;;;;;41.15;3.70;;;;;;;;;;5041731;28;20032;-62
2022/01/02 05:35:22;;;;;;;23.25;2.50;;;;;;;;;;5042467;28;20033;-62
2022/01/02 05:37:47;;;;;;;50.90;3.00;;;;;;;;;;5042574;28;20029;-63
2022/01/02 05:40:13;;;;;;;28.90;2.35;;;;;;;;;;5039314;28;20120;-62
2022/01/02 05:42:38;;;;;;;28.17;2.38;;;;;;;;;;5033903;28;20037;-62
2022/01/02 05:45:04;;;;;;;21.55;2.60;;;;;;;;;;5035577;28;20021;-60
2022/01/02 05:47:29;;;;;;;22.83;2.38;;;;;;;;;;5039113;28;20430;-62
2022/01/02 05:49:55;;;;;;;29.48;2.05;;;;;;;;;;5046725;28;20028;-61
2022/01/02 05:52:20;;;;;;;22.35;2.00;;;;;;;;;;5044740;28;20530;-63
2022/01/02 05:54:46;;;;;;;25.33;2.83;;;;;;;;;;5036994;28;20021;-61
2022/01/02 05:57:11;;;;;;;22.60;1.83;;;;;;;;;;5039105;28;20056;-62
2022/01/02 05:59:39;;;;;;;14.02;1.52;;;;;;;;;;5036816;28;20021;-63
2022/01/02 06:02:04;;;;;;;22.08;1.98;;;;;;;;;;5039442;28;20028;-61
2022/01/02 06:04:30;;;;;;;27.98;3.17;;;;;;;;;;5036872;28;20036;-61
2022/01/02 06:06:55;;;;;;;14.48;1.25;;;;;;;;;;5035418;28;20039;-62
2022/01/02 06:09:20;;;;;;;19.88;2.60;;;;;;;;;;5034917;28;20052;-66
2022/01/02 06:11:46;;;;;;;21.42;1.92;;;;;;;;;;5035515;28;20511;-61
2022/01/02 06:14:12;;;;;;;30.13;2.03;;;;;;;;;;5038508;28;20111;-61
2022/01/02 06:16:37;;;;;;;9.60;1.13;;;;;;;;;;5038102;28;20033;-63
2022/01/02 06:19:02;;;;;;;28.35;2.80;;;;;;;;;;5040905;28;20029;-62
2022/01/02 06:21:28;;;;;;;21.65;2.30;;;;;;;;;;5037864;28;20117;-66
2022/01/02 06:23:53;;;;;;;27.98;1.90;;;;;;;;;;5045052;28;20033;-62
2022/01/02 06:26:19;;;;;;;18.45;1.65;;;;;;;;;;5031849;28;20021;-61
2022/01/02 06:28:44;;;;;;;30.05;1.73;;;;;;;;;;5035313;28;20044;-62
2022/01/02 06:31:11;;;;;;;18.33;1.98;;;;;;;;;;5038446;28;20059;-62
2022/01/02 06:33:37;;;;;;;12.07;1.38;;;;;;;;;;5040687;28;20294;-62
2022/01/02 06:36:02;;;;;;;8.52;1.90;;;;;;;;;;5032453;28;20184;-63
2022/01/02 06:38:28;;;;;;;22.90;2.47;;;;;;;;;;5035980;28;20033;-64
2022/01/02 06:40:53;;;;;;;18.00;1.38;;;;;;;;;;5039417;28;20031;-62
2022/01/02 06:43:20;;;;;;;25.00;1.30;;;;;;;;;;5036616;28;20448;-62
2022/01/02 06:45:45;;;;;;;27.30;2.28;;;;;;;;;;5036488;28;20022;-61
2022/01/02 06:48:11;;;;;;;13.75;1.92;;;;;;;;;;5033426;28;20511;-65
2022/01/02 06:50:36;;;;;;;15.30;1.75;;;;;;;;;;5042045;28;20026;-63
2022/01/02 06:53:02;;;;;;;20.20;1.40;;;;;;;;;;5037582;28;20028;-63
2022/01/02 06:55:28;;;;;;;16.90;1.33;;;;;;;;;;5037363;28;20543;-63
2022/01/02 06:57:54;;;;;;;38.05;2.55;;;;;;;;;;5036323;28;20025;-61
2022/01/02 07:00:19;;;;;;;13.65;1.77;;;;;;;;;;5053621;28;20048;-61
2022/01/02 07:02:45;;;;;;;18.25;1.60;;;;;;;;;;5041308;28;20425;-63
2022/01/02 07:05:10;;;;;;;24.63;1.90;;;;;;;;;;5044020;28;20021;-63
2022/01/02 07:07:40;;;;;;;23.85;2.78;;;;;;;;;;5034938;28;20174;-63
2022/01/02 07:10:06;;;;;;;17.17;1.80;;;;;;;;;;5039887;28;20496;-62
2022/01/02 07:12:33;;;;;;;17.15;1.05;;;;;;;;;;5042510;28;20040;-64
2022/01/02 07:14:59;;;;;;;18.25;1.48;;;;;;;;;;5042875;28;20048;-63
2022/01/02 07:17:24;;;;;;;22.50;1.63;;;;;;;;;;5043316;28;20432;-64
2022/01/02 07:19:50;;;;;;;9.13;1.83;;;;;;;;;;5044596;28;20511;-63
2022/01/02 07:22:15;;;;;;;17.33;1.92;;;;;;;;;;5037032;28;20120;-64
2022/01/02 07:24:45;;;;;;;20.13;1.67;;;;;;;;;;5039811;28;20029;-63
2022/01/02 07:27:11;;;;;;;24.95;1.85;;;;;;;;;;5037750;28;20033;-65
2022/01/02 07:29:36;;;;;;;12.15;0.93;;;;;;;;;;5040453;28;20079;-72
2022/01/02 07:32:02;;;;;;;16.27;2.42;;;;;;;;;;5036128;28;20112;-63
2022/01/02 07:34:28;;;;;;;17.52;1.42;;;;;;;;;;5045262;28;20352;-64
2022/01/02 07:36:53;;;;;;;19.40;1.40;;;;;;;;;;5039690;28;20020;-63
2022/01/02 07:39:19;;;;;;;22.33;1.50;;;;;;;;;;5040276;28;20036;-64
2022/01/02 07:41:44;;;;;;;24.60;1.70;;;;;;;;;;5034752;28;20489;-64
2022/01/02 07:44:10;;;;;;;14.02;1.23;;;;;;;;;;5040457;28;20187;-63
2022/01/02 07:46:35;;;;;;;12.27;0.93;;;;;;;;;;5040907;28;20029;-64
2022/01/02 07:49:01;;;;;;;16.67;2.20;;;;;;;;;;5040946;28;20056;-64
2022/01/02 07:51:26;;;;;;;11.55;1.00;;;;;;;;;;5034950;28;20168;-62
2022/01/02 07:53:52;;;;;;;12.55;1.08;;;;;;;;;;5045756;28;20151;-63
2022/01/02 07:56:18;;;;;;;11.68;1.10;;;;;;;;;;5041158;28;20029;-62
2022/01/02 07:58:43;;;;;;;36.58;2.15;;;;;;;;;;5044497;28;20028;-64
2022/01/02 08:01:09;;;;;;;6.85;1.15;;;;;;;;;;5044892;28;20399;-63
2022/01/02 08:03:35;;;;;;;20.42;1.38;;;;;;;;;;5043184;28;20029;-62
2022/01/02 08:06:01;;;;;;;20.58;1.85;;;;;;;;;;5039624;28;20063;-67
2022/01/02 08:08:26;;;;;;;10.45;2.53;;;;;;;;;;5038436;28;20041;-63
2022/01/02 08:10:52;;;;;;;14.43;1.40;;;;;;;;;;5036539;28;20523;-62
2022/01/02 08:13:17;;;;;;;13.88;1.50;;;;;;;;;;5034812;28;20064;-64
2022/01/02 08:15:43;;;;;;;15.95;2.60;;;;;;;;;;5036510;28;20111;-67
2022/01/02 08:18:13;;;;;;;15.73;1.55;;;;;;;;;;5035103;28;20033;-64
2022/01/02 08:20:39;;;;;;;11.57;1.40;;;;;;;;;;5039886;28;20031;-62
2022/01/02 08:23:05;;;;;;;15.27;1.52;;;;;;;;;;5036276;28;20036;-63
2022/01/02 08:25:30;;;;;;;15.77;0.77;;;;;;;;;;5038247;28;20107;-62
2022/01/02 08:27:56;;;;;;;19.58;1.70;;;;;;;;;;5033188;28;20025;-61
2022/01/02 08:30:21;;;;;;;9.10;0.80;;;;;;;;;;5038896;28;20198;-64
2022/01/02 08:35:01;;;;;;;17.27;1.42;;;;;;;;;;5134908;27;20328;-65
2022/01/02 08:37:27;;;;;;;14.50;2.58;;;;;;;;;;5111951;27;20115;-63
2022/01/02 08:39:52;;;;;;;18.08;1.75;;;;;;;;;;5131320;27;20066;-60
2022/01/02 08:42:18;;;;;;;20.98;1.55;;;;;;;;;;5129378;27;20375;-62
2022/01/02 08:44:43;;;;;;;18.70;1.65;;;;;;;;;;5120123;27;20598;-62
2022/01/02 08:47:10;;;;;;;16.48;1.73;;;;;;;;;;5128251;27;20019;-63
2022/01/02 08:49:36;;;;;;;45.00;2.78;;;;;;;;;;5132754;27;20099;-63
2022/01/02 08:52:02;;;;;;;22.23;2.83;;;;;;;;;;5114461;28;20106;-62
2022/01/02 08:54:28;;;;;;;24.30;1.52;;;;;;;;;;5108407;28;20038;-60
2022/01/02 08:56:53;;;;;;;10.38;1.98;;;;;;;;;;5125963;27;20039;-65
2022/01/02 08:59:24;;;;;;;15.57;1.08;;;;;;;;;;5108264;27;20114;-63
2022/01/02 09:01:53;;;;;;;22.65;1.58;;;;;;;;;;5130070;27;20398;-63
2022/01/02 09:04:18;;;;;;;17.70;2.22;;;;;;;;;;5125173;27;20046;-65
2022/01/02 09:06:44;;;;;;;16.17;1.92;;;;;;;;;;5127784;27;20482;-64
2022/01/02 09:09:09;;;;;;;33.10;1.88;;;;;;;;;;5129857;27;20059;-64
2022/01/02 09:11:35;;;;;;;23.73;1.10;;;;;;;;;;5127213;27;20066;-63
2022/01/02 09:14:02;;;;;;;16.38;1.85;;;;;;;;;;5129522;27;20444;-63
2022/01/02 09:16:28;;;;;;;21.35;1.10;;;;;;;;;;5133230;27;20034;-63
2022/01/02 09:18:54;;;;;;;22.15;1.88;;;;;;;;;;5124923;27;20482;-71
2022/01/02 09:21:20;;;;;;;12.55;1.42;;;;;;;;;;5116254;27;20035;-64
2022/01/02 09:23:46;;;;;;;16.88;1.67;;;;;;;;;;5105409;28;20497;-70
2022/01/02 09:26:11;;;;;;;22.25;1.48;;;;;;;;;;5108340;28;20044;-72
2022/01/02 09:28:37;;;;;;;9.85;1.30;;;;;;;;;;5105877;28;20023;-71
2022/01/02 09:31:02;;;;;;;9.68;1.35;;;;;;;;;;5106470;28;20054;-61
2022/01/02 09:33:28;;;;;;;23.50;2.90;;;;;;;;;;5103914;28;20044;-64
2022/01/02 09:35:54;;;;;;;12.57;1.58;;;;;;;;;;5103211;28;20505;-71
2022/01/02 09:38:19;;;;;;;17.77;1.85;;;;;;;;;;5094858;28;20646;-71
2022/01/02 09:40:46;;;;;;;18.88;2.15;;;;;;;;;;5109935;28;20019;-67
2022/01/02 09:43:11;;;;;;;28.73;2.65;;;;;;;;;;5106713;28;20386;-69
2022/01/02 09:45:38;;;;;;;35.10;2.72;;;;;;;;;;5097441;28;20028;-71
2022/01/02 09:48:05;;;;;;;24.40;1.92;;;;;;;;;;5079365;28;20028;-73
2022/01/02 09:50:32;;;;;;;23.40;2.72;;;;;;;;;;5094217;28;20032;-70
2022/01/02 09:52:58;;;;;;;14.20;1.67;;;;;;;;;;5079051;28;20028;-71
2022/01/02 09:55:23;;;;;;;7.03;0.93;;;;;;;;;;5094509;28;20537;-69
2022/01/02 09:57:52;;;;;;;16.42;1.63;;;;;;;;;;5098043;28;20050;-72
2022/01/02 10:00:20;;;;;;;27.52;2.03;;;;;;;;;;5094608;28;20119;-71
2022/01/02 10:02:59;;;;;;;17.52;3.28;;;;;;;;;;5080611;28;20027;-61
2022/01/02 10:05:26;;;;;;;28.25;1.90;;;;;;;;;;5089053;28;20542;-68
2022/01/02 10:07:53;;;;;;;19.92;1.63;;;;;;;;;;5088608;28;20020;-67
2022/01/02 10:10:19;;;;;;;9.02;1.50;;;;;;;;;;5090941;28;20039;-73
2022/01/02 10:12:45;;;;;;;21.27;2.05;;;;;;;;;;5072610;28;20114;-70
2022/01/02 10:15:23;;;;;;;11.70;1.00;;;;;;;;;;5092213;28;20032;-67
2022/01/02 10:17:56;;;;;;;17.88;1.67;;;;;;;;;;5084290;28;20112;-68
2022/01/02 10:20:28;;;;;;;32.47;2.38;;;;;;;;;;5092278;28;20047;-66
2022/01/02 10:23:13;;;;;;;28.90;1.63;;;;;;;;;;5092604;28;20065;-62
2022/01/02 10:25:50;;;;;;;15.98;1.10;;;;;;;;;;5090836;28;20258;-64
2022/01/02 10:28:26;;;;;;;19.55;1.10;;;;;;;;;;5091045;28;20031;-64
2022/01/02 10:30:55;;;;;;;5.95;0.57;;;;;;;;;;5083287;28;20027;-63
2022/01/02 10:33:21;;;;;;;13.45;1.17;;;;;;;;;;5086996;28;20043;-64
2022/01/02 10:35:54;;;;;;;15.63;1.48;;;;;;;;;;5089086;28;20035;-67
2022/01/02 10:38:20;;;;;;;6.68;0.90;;;;;;;;;;5091713;28;20481;-64
2022/01/02 10:40:46;;;;;;;9.27;1.40;;;;;;;;;;5070867;28;20038;-67
2022/01/02 10:43:33;;;;;;;3.80;0.32;;;;;;;;;;5077640;28;20028;-68
2022/01/02 10:46:07;;;;;;;2.67;0.45;;;;;;;;;;5091779;28;20070;-68
2022/01/02 10:48:40;;;;;;;5.28;0.47;;;;;;;;;;5091775;28;20024;-67
2022/01/02 10:51:14;;;;;;;6.47;0.40;;;;;;;;;;5088130;28;20027;-68
2022/01/02 10:53:51;;;;;;;8.88;0.65;;;;;;;;;;5086565;28;20028;-69
2022/01/02 10:56:19;;;;;;;4.30;0.63;;;;;;;;;;5084316;28;20032;-69
2022/01/02 10:58:47;;;;;;;9.48;0.80;;;;;;;;;;5085643;28;20084;-67
2022/01/02 11:01:12;;;;;;;7.32;0.70;;;;;;;;;;5087362;28;20394;-69
2022/01/02 11:03:39;;;;;;;5.00;0.80;;;;;;;;;;5089264;28;20008;-63
2022/01/02 11:06:07;;;;;;;9.65;1.17;;;;;;;;;;5088180;28;20082;-68
2022/01/02 11:08:35;;;;;;;5.00;0.68;;;;;;;;;;5090868;28;20012;-69
2022/01/02 11:11:02;;;;;;;8.55;1.13;;;;;;;;;;5087983;28;20034;-64
2022/01/02 11:13:27;;;;;;;4.03;0.60;;;;;;;;;;5088517;28;20020;-68
2022/01/02 11:15:54;;;;;;;4.38;0.95;;;;;;;;;;5091235;28;20035;-68
2022/01/02 11:18:19;;;;;;;4.82;0.70;;;;;;;;;;5091157;28;20097;-67
2022/01/02 11:20:45;;;;;;;6.47;0.85;;;;;;;;;;5090931;28;20020;-67
2022/01/02 11:23:45;;;;;;;3.33;0.60;;;;;;;;;;5090689;28;20405;-66
2022/01/02 11:26:29;;;;;;;1.15;0.35;;;;;;;;;;5092154;28;20483;-64
2022/01/02 11:28:57;;;;;;;5.60;0.60;;;;;;;;;;5091833;28;20075;-65
2022/01/02 11:31:28;;;;;;;10.23;0.95;;;;;;;;;;5096082;28;20016;-65
2022/01/02 11:33:54;;;;;;;5.90;0.80;;;;;;;;;;5090700;28;20044;-66
2022/01/02 11:36:27;;;;;;;7.10;0.70;;;;;;;;;;5089485;28;20565;-68
2022/01/02 11:39:10;;;;;;;9.30;0.63;;;;;;;;;;5091844;28;20028;-64
2022/01/02 11:41:46;;;;;;;6.25;0.43;;;;;;;;;;5082792;28;20027;-63
2022/01/02 11:44:19;;;;;;;9.10;0.85;;;;;;;;;;5092421;28;20031;-66
2022/01/02 11:46:51;;;;;;;12.32;0.45;;;;;;;;;;5090935;28;20413;-65
2022/01/02 11:49:18;;;;;;;;;;;;;;;;;;5090959;28;20020;-68
2022/01/02 11:51:46;;;;;;;6.70;1.13;;;;;;;;;;5081379;28;19935;-67
2022/01/02 11:54:27;;;;;;;9.10;0.70;;;;;;;;;;5075405;28;20026;-63
2022/01/02 11:56:54;;;;;;;5.88;0.50;;;;;;;;;;5091864;28;20024;-64
2022/01/02 11:59:38;;;;;;;9.25;1.13;;;;;;;;;;5094687;28;20023;-67
2022/01/02 12:02:08;;;;;;;7.50;1.00;;;;;;;;;;5086537;28;20028;-63
2022/01/02 12:04:58;;;;;;;10.32;1.10;;;;;;;;;;5090795;28;20390;-67
2022/01/02 12:07:33;;;;;;;2.05;0.40;;;;;;;;;;5090618;28;20077;-66
2022/01/02 12:10:13;;;;;;;7.68;1.10;;;;;;;;;;5085701;28;20490;-67
2022/01/02 12:12:58;;;;;;;13.18;1.33;;;;;;;;;;5080043;28;20096;-63
2022/01/02 12:15:32;;;;;;;6.45;0.50;;;;;;;;;;5087343;28;20112;-69
2022/01/02 12:18:28;;;;;;;9.93;1.15;;;;;;;;;;5083610;28;20035;-65
2022/01/02 12:20:56;;;;;;;3.45;0.95;;;;;;;;;;5085120;28;20024;-67
2022/01/02 12:23:40;;;;;;;7.30;0.65;;;;;;;;;;5087480;28;20020;-71
2022/01/02 12:26:21;;;;;;;5.53;0.45;;;;;;;;;;5088510;28;20027;-65
2022/01/02 12:28:57;;;;;;;4.57;0.65;;;;;;;;;;5090165;28;20312;-69
2022/01/02 12:31:32;;;;;;;8.07;0.80;;;;;;;;;;5088131;28;20092;-63
2022/01/02 12:34:18;;;;;;;4.50;0.73;;;;;;;;;;5080634;28;20040;-60
2022/01/02 12:36:48;;;;;;;3.95;0.70;;;;;;;;;;5087195;28;20077;-60
2022/01/02 12:39:15;;;;;;;9.68;1.15;;;;;;;;;;5087893;28;20099;-60
2022/01/02 12:41:44;;;;;;;7.60;1.15;;;;;;;;;;5087271;28;20139;-60
2022/01/02 12:44:13;;;;;;;8.30;1.83;;;;;;;;;;5094437;28;20123;-59
2022/01/02 12:46:50;;;;;;;7.60;0.90;;;;;;;;;;5088519;28;20101;-61
2022/01/02 12:49:19;;;;;;;16.42;1.42;;;;;;;;;;5085531;28;20807;-60
2022/01/02 12:51:47;;;;;;;5.55;0.82;;;;;;;;;;5073283;28;20221;-73
2022/01/02 12:54:15;;;;;;;6.28;0.95;;;;;;;;;;5092988;28;20101;-68
2022/01/02 12:56:42;;;;;;;12.15;1.30;;;;;;;;;;5091925;28;20028;-63
2022/01/02 12:59:45;;;;;;;7.53;1.10;;;;;;;;;;5090404;28;20499;-61
2022/01/02 13:02:20;;;;;;;7.88;1.10;;;;;;;;;;5067358;28;20070;-60
2022/01/02 13:04:56;;;;;;;10.65;1.33;;;;;;;;;;5092868;28;20139;-60
2022/01/02 13:07:22;;;;;;;12.15;1.45;;;;;;;;;;5073404;28;20024;-60
2022/01/02 13:10:13;;;;;;;11.02;1.10;;;;;;;;;;5090574;28;20450;-62
2022/01/02 13:12:41;;;;;;;17.65;1.80;;;;;;;;;;5089763;28;20486;-65
2022/01/02 13:15:12;;;;;;;19.30;1.67;;;;;;;;;;5069584;28;20033;-62
2022/01/02 13:17:43;;;;;;;8.18;2.08;;;;;;;;;;5087583;28;20027;-59
2022/01/02 13:20:18;;;;;;;8.80;1.58;;;;;;;;;;5088120;28;20023;-60
2022/01/02 13:22:49;;;;;;;11.23;1.25;;;;;;;;;;5096855;28;20051;-59
2022/01/02 13:25:18;;;;;;;25.00;1.65;;;;;;;;;;5090713;28;20028;-65
2022/01/02 13:28:13;;;;;;;10.48;1.27;;;;;;;;;;5093516;28;20123;-60
2022/01/02 13:30:51;;;;;;;17.30;1.23;;;;;;;;;;5075962;28;20040;-60
2022/01/02 13:33:19;;;;;;;6.75;1.02;;;;;;;;;;5085707;28;20044;-60
2022/01/02 13:35:45;;;;;;;18.48;2.17;;;;;;;;;;5092598;28;20490;-62
2022/01/02 13:38:11;;;;;;;11.65;1.55;;;;;;;;;;5090893;28;20035;-60
2022/01/02 13:40:38;;;;;;;22.27;2.30;;;;;;;;;;5086057;28;20024;-70
2022/01/02 13:43:21;;;;;;;12.80;1.88;;;;;;;;;;5089048;28;20391;-66
2022/01/02 13:45:49;;;;;;;12.80;1.33;;;;;;;;;;5090252;28;20032;-66
2022/01/02 13:48:26;;;;;;;17.42;1.42;;;;;;;;;;5090303;28;20027;-71
2022/01/02 13:50:58;;;;;;;15.43;1.63;;;;;;;;;;5075898;28;20092;-68
2022/01/02 13:53:33;;;;;;;4.05;1.20;;;;;;;;;;5091466;28;20101;-70
2022/01/02 13:56:05;;;;;;;15.48;2.78;;;;;;;;;;5090595;28;20032;-63
2022/01/02 13:58:39;;;;;;;12.43;1.40;;;;;;;;;;5093747;28;20028;-71
2022/01/02 14:01:14;;;;;;;8.80;0.98;;;;;;;;;;5073830;28;20035;-70
2022/01/02 14:03:41;;;;;;;17.50;2.47;;;;;;;;;;5091167;28;20038;-62
2022/01/02 14:06:13;;;;;;;14.27;2.10;;;;;;;;;;5081367;28;20024;-64
2022/01/02 14:08:46;;;;;;;18.17;2.20;;;;;;;;;;5092732;28;20027;-64
2022/01/02 14:11:20;;;;;;;9.25;2.53;;;;;;;;;;5089583;28;20046;-63
2022/01/02 14:13:50;;;;;;;26.58;3.33;;;;;;;;;;5090150;28;20103;-65
2022/01/02 14:18:58;;;;;;;;;;;;;;;;;;5093159;28;20073;-65
2022/01/02 14:21:24;;;;;;;20.20;2.17;;;;;;;;;;5089997;28;19912;-64
2022/01/02 14:23:49;;;;;;;8.32;1.38;;;;;;;;;;5097000;28;20445;-65
2022/01/02 14:26:15;;;;;;;16.27;1.40;;;;;;;;;;5084353;28;20031;-66
2022/01/02 14:28:41;;;;;;;14.95;2.00;;;;;;;;;;5066478;28;20056;-60
2022/01/02 14:31:07;;;;;;;19.15;2.78;;;;;;;;;;5088573;28;20036;-70
2022/01/02 14:33:33;;;;;;;12.93;1.90;;;;;;;;;;5075803;28;20040;-64
2022/01/02 14:35:58;;;;;;;6.57;1.55;;;;;;;;;;5085298;28;20477;-59
2022/01/02 14:38:24;;;;;;;25.58;3.25;;;;;;;;;;5085950;28;20035;-65
2022/01/02 14:40:49;;;;;;;14.18;1.33;;;;;;;;;;5072001;28;20564;-70
2022/01/02 14:43:15;;;;;;;22.42;2.40;;;;;;;;;;5085934;28;20103;-69
2022/01/02 14:45:41;;;;;;;15.77;2.08;;;;;;;;;;5087356;28;20111;-70
2022/01/02 14:48:07;;;;;;;23.35;2.13;;;;;;;;;;5077296;28;20798;-71
2022/01/02 14:50:32;;;;;;;18.08;2.08;;;;;;;;;;5085996;28;20449;-64